Johannesburg, MI (49751)

10:35 AM EST on February 14, 2016 (GMT -0500)
Lake Louise | | Change Station
CLOSE
Current Station
Personal Weather Station
Location: Johannesburg, MI
Elevation: 1358 ft
Nearby Weather Stations

Elev 1358 ft 44.98 °N, 84.49 °W | Updated 10 minutes ago

Overcast
Overcast
13.8 °F
Feels Like 14 °F
N
2.2
Wind Variable Wind from SSE

Today
High -- | Low -- °F
--% Chance of Precip.
Yesterday
High -- | Low -- °F
Precip. -- in
Pressure 30.42 in
Visibility 10.0 miles
Clouds Overcast 3200 ft
Windchill 14 °F
Dew Point 7 °F
Humidity 75%
Rainfall 0.00 in
Snow Depth Not available.
7:40 AM 6:03 PM
Waxing Crescent, 42% visible
METAR KGLR 141453Z AUTO 18005KT 10SM OVC032 M13/M16 A3031 RMK AO2 SLP299 T11331161 58009
Pressure 30.42 in
Visibility 10.0 miles
Clouds Overcast 3200 ft
Windchill 14 °F
Dew Point 7 °F
Humidity 75%
Rainfall 0.00 in
Snow Depth Not available.
7:40 AM 6:03 PM
Waxing Crescent, 42% visible
METAR KGLR 141453Z AUTO 18005KT 10SM OVC032 M13/M16 A3031 RMK AO2 SLP299 T11331161 58009

10-Day Weather Forecast

Almanac

Astronomy

Feb. 14, 2016 Rise Set
Actual Time
Civil Twilight
Nautical Twilight
Astronomical Twilight
Moon
Length of Visible Light
Length of Day
Tomorrow will be .
, % of the Moon is Illuminated

Today's Extremes

State Highs State Lows

Community

WunderPhotos

Upload Photos

1,892,795 photos uploaded!

WunderBlog® & News

Nearby

Air Quality

  Air Quality AQ Index Pollutant
Not available.

Snow Depth

Station Depth Elevation

Earthquake Activity

City Distance Mag. Time & Date
Minimum magnitude displayed is 2.5.

Coastal Water Temperatures

Place Temperature

Stations

Nearby Weather Stations

Station Location Temp. Windchill Dew Point Humidity Wind Precip. Elev Updated Type
                   

Watches & Warnings

There are currently no watches in effect.